createdAt,value
2022-10-14T00:11:18.698Z,1018.15
2022-10-14T00:20:56.241Z,1018.14
2022-10-14T00:30:33.371Z,1018.11
2022-10-14T00:40:10.378Z,1018.02
2022-10-14T00:49:47.691Z,1018.16
2022-10-14T00:59:24.916Z,1018.12
2022-10-14T01:09:02.358Z,1018.23
2022-10-14T01:18:39.626Z,1018.09
2022-10-14T01:28:16.870Z,1018.1
2022-10-14T01:37:54.049Z,1018.01
2022-10-14T01:47:31.681Z,1017.95
2022-10-14T01:57:08.792Z,1017.89
2022-10-14T02:16:23.463Z,1017.69
2022-10-14T02:26:00.537Z,1017.7
2022-10-14T02:35:37.620Z,1017.65
2022-10-14T02:45:14.794Z,1017.6
2022-10-14T02:54:51.676Z,1017.5
2022-10-14T03:04:28.778Z,1017.47
2022-10-14T03:14:06.461Z,1017.46
2022-10-14T03:33:23.627Z,1017.42
2022-10-14T03:52:35.823Z,1017.28
2022-10-14T04:02:12.883Z,1017.26
2022-10-14T04:11:50.192Z,1017.09
2022-10-14T04:31:04.826Z,1016.91
2022-10-14T04:40:41.922Z,1016.98
2022-10-14T04:50:19.181Z,1017.01
2022-10-14T04:59:56.591Z,1016.89
2022-10-14T05:09:33.616Z,1016.9
2022-10-14T05:19:11.056Z,1016.98
2022-10-14T05:28:48.355Z,1016.9
2022-10-14T05:38:25.556Z,1016.92
2022-10-14T05:48:02.753Z,1017
2022-10-14T05:57:40.156Z,1017.05
2022-10-14T06:07:16.683Z,1016.93
2022-10-14T06:16:55.901Z,1016.91
2022-10-14T06:26:32.279Z,1017.05
2022-10-14T06:36:09.874Z,1016.98
2022-10-14T06:45:46.973Z,1016.96
2022-10-14T06:55:24.398Z,1016.92
2022-10-14T07:05:01.942Z,1016.95
2022-10-14T07:14:39.318Z,1016.88
2022-10-14T07:24:16.836Z,1016.88
2022-10-14T07:33:54.853Z,1016.88
2022-10-14T07:43:33.014Z,1016.8
2022-10-14T07:53:10.798Z,1016.89
2022-10-14T08:02:49.348Z,1016.84
2022-10-14T08:12:27.669Z,1016.81
2022-10-14T08:31:43.786Z,1016.62
2022-10-14T08:41:22.213Z,1016.65
2022-10-14T08:51:00.687Z,1016.66
2022-10-14T09:00:39.392Z,1016.62
2022-10-14T09:10:17.535Z,1016.57
2022-10-14T09:19:56.624Z,1016.51
2022-10-14T09:29:34.801Z,1016.33
2022-10-14T09:39:13.695Z,1016.28
2022-10-14T10:08:07.553Z,1016.04
2022-10-14T10:27:21.830Z,1015.92
2022-10-14T10:37:02.692Z,1015.73
2022-10-14T10:47:00.358Z,1015.67
2022-10-14T10:56:29.523Z,1015.55
2022-10-14T11:06:03.477Z,1015.51
2022-10-14T11:15:42.396Z,1015.49
2022-10-14T11:25:24.270Z,1015.25
2022-10-14T11:35:05.558Z,1015.03
2022-10-14T11:44:40.770Z,1014.91
2022-10-14T11:54:15.347Z,1014.85
2022-10-14T12:04:01.362Z,1014.63
2022-10-14T12:13:42.125Z,1014.49
2022-10-14T12:23:13.038Z,1014.58
2022-10-14T12:32:45.325Z,1014.49
2022-10-14T12:42:19.691Z,1014.56
2022-10-14T12:51:55.782Z,1014.49
2022-10-14T13:01:33.731Z,1014.42
2022-10-14T13:11:08.390Z,1014.38
2022-10-14T13:20:46.092Z,1014.29
2022-10-14T13:40:00.650Z,1013.97
2022-10-14T13:49:37.751Z,1013.9
2022-10-14T13:59:21.749Z,1013.82
2022-10-14T14:08:51.859Z,1013.81
2022-10-14T14:18:55.935Z,1013.59
2022-10-14T14:28:14.310Z,1013.64
2022-10-14T14:37:55.473Z,1013.62
2022-10-14T14:47:22.382Z,1013.59
2022-10-14T14:56:58.718Z,1013.51
2022-10-14T15:06:36.082Z,1013.35
2022-10-14T15:25:48.730Z,1013.22
2022-10-14T15:45:01.484Z,1013.02
2022-10-14T15:54:37.725Z,1012.81
2022-10-14T16:13:50.472Z,1012.71
2022-10-14T16:42:40.848Z,1012.73
2022-10-14T16:52:17.488Z,1012.72
2022-10-14T17:01:54.608Z,1012.74
2022-10-14T17:11:31.939Z,1012.73
2022-10-14T17:21:08.824Z,1012.61
2022-10-14T17:30:45.246Z,1012.73
2022-10-14T17:40:22.045Z,1012.69
2022-10-14T17:49:58.930Z,1012.61
2022-10-14T17:59:35.959Z,1012.49
2022-10-14T18:18:49.699Z,1012.35
2022-10-14T18:28:27.112Z,1012.36
2022-10-14T18:38:04.237Z,1012.19
2022-10-14T18:47:40.934Z,1012.12
2022-10-14T18:57:17.900Z,1012.05
2022-10-14T19:06:54.851Z,1011.87
2022-10-14T19:16:31.688Z,1011.86
2022-10-14T19:26:09.184Z,1011.78
2022-10-14T19:45:23.668Z,1011.39
2022-10-14T19:54:59.782Z,1011.28
2022-10-14T20:04:36.278Z,1011.28
2022-10-14T20:14:13.371Z,1011.31
2022-10-14T20:23:50.221Z,1011.34
2022-10-14T20:33:27.462Z,1011.26
2022-10-14T20:43:04.573Z,1011.28
2022-10-14T20:52:41.966Z,1011.1
2022-10-14T21:02:17.983Z,1011.14
2022-10-14T21:11:55.315Z,1011.05
2022-10-14T21:21:32.342Z,1010.93
2022-10-14T21:40:46.938Z,1010.69
2022-10-14T22:00:00.729Z,1010.55
2022-10-14T22:09:37.877Z,1010.51
2022-10-14T22:19:14.871Z,1010.49
2022-10-14T22:28:52.025Z,1010.29
2022-10-14T22:38:29.126Z,1010.23
2022-10-14T22:48:06.657Z,1010.14
2022-10-14T23:07:21.451Z,1010.03
2022-10-14T23:16:58.852Z,1010.12
2022-10-14T23:26:36.140Z,1010.01
2022-10-14T23:36:13.434Z,1010.01
2022-10-14T23:55:27.680Z,1009.83
